sensor_id;sensor_type;location;lat;lon;timestamp;P1;durP1;ratioP1;P2;durP2;ratioP2
62588;SDS011;58504;48.770;9.148;2022-08-04T00:02:09;0.63;;;0.63;;
62588;SDS011;58504;48.770;9.148;2022-08-04T00:04:40;0.60;;;0.60;;
62588;SDS011;58504;48.770;9.148;2022-08-04T00:07:15;0.68;;;0.68;;
62588;SDS011;58504;48.770;9.148;2022-08-04T00:09:48;0.70;;;0.70;;
62588;SDS011;58504;48.770;9.148;2022-08-04T00:12:18;0.55;;;0.55;;
62588;SDS011;58504;48.770;9.148;2022-08-04T00:14:48;0.65;;;0.65;;
62588;SDS011;58504;48.770;9.148;2022-08-04T00:17:17;0.60;;;0.60;;
62588;SDS011;58504;48.770;9.148;2022-08-04T00:19:47;1.02;;;1.02;;
62588;SDS011;58504;48.770;9.148;2022-08-04T00:24:47;0.75;;;0.75;;
62588;SDS011;58504;48.770;9.148;2022-08-04T00:27:14;0.65;;;0.65;;
62588;SDS011;58504;48.770;9.148;2022-08-04T00:29:41;0.75;;;0.75;;
62588;SDS011;58504;48.770;9.148;2022-08-04T00:32:08;0.50;;;0.50;;
62588;SDS011;58504;48.770;9.148;2022-08-04T00:34:35;0.90;;;0.90;;
62588;SDS011;58504;48.770;9.148;2022-08-04T00:37:04;0.80;;;0.80;;
62588;SDS011;58504;48.770;9.148;2022-08-04T00:39:32;0.70;;;0.70;;
62588;SDS011;58504;48.770;9.148;2022-08-04T00:42:06;0.60;;;0.60;;
62588;SDS011;58504;48.770;9.148;2022-08-04T00:44:49;0.70;;;0.70;;
62588;SDS011;58504;48.770;9.148;2022-08-04T00:47:32;0.60;;;0.60;;
62588;SDS011;58504;48.770;9.148;2022-08-04T00:50:08;0.80;;;0.80;;
62588;SDS011;58504;48.770;9.148;2022-08-04T00:52:40;0.70;;;0.70;;
62588;SDS011;58504;48.770;9.148;2022-08-04T00:55:18;0.55;;;0.55;;
62588;SDS011;58504;48.770;9.148;2022-08-04T00:58:02;0.70;;;0.70;;
62588;SDS011;58504;48.770;9.148;2022-08-04T01:00:43;0.60;;;0.60;;
62588;SDS011;58504;48.770;9.148;2022-08-04T01:03:21;0.80;;;0.80;;
62588;SDS011;58504;48.770;9.148;2022-08-04T01:06:01;0.57;;;0.57;;
62588;SDS011;58504;48.770;9.148;2022-08-04T01:08:48;0.65;;;0.65;;
62588;SDS011;58504;48.770;9.148;2022-08-04T01:11:24;0.70;;;0.70;;
62588;SDS011;58504;48.770;9.148;2022-08-04T01:14:04;0.60;;;0.60;;
62588;SDS011;58504;48.770;9.148;2022-08-04T01:16:45;0.50;;;0.50;;
62588;SDS011;58504;48.770;9.148;2022-08-04T01:19:21;0.60;;;0.60;;
62588;SDS011;58504;48.770;9.148;2022-08-04T01:22:15;0.60;;;0.60;;
62588;SDS011;58504;48.770;9.148;2022-08-04T01:25:00;0.60;;;0.60;;
62588;SDS011;58504;48.770;9.148;2022-08-04T01:27:41;0.50;;;0.50;;
62588;SDS011;58504;48.770;9.148;2022-08-04T01:30:21;0.82;;;0.82;;
62588;SDS011;58504;48.770;9.148;2022-08-04T01:32:51;0.80;;;0.80;;
62588;SDS011;58504;48.770;9.148;2022-08-04T01:35:23;0.80;;;0.80;;
62588;SDS011;58504;48.770;9.148;2022-08-04T01:37:55;0.50;;;0.50;;
62588;SDS011;58504;48.770;9.148;2022-08-04T01:40:26;1.00;;;1.00;;
62588;SDS011;58504;48.770;9.148;2022-08-04T01:42:54;0.55;;;0.55;;
62588;SDS011;58504;48.770;9.148;2022-08-04T01:45:24;0.43;;;0.43;;
62588;SDS011;58504;48.770;9.148;2022-08-04T01:47:55;0.60;;;0.60;;
62588;SDS011;58504;48.770;9.148;2022-08-04T01:50:22;0.50;;;0.50;;
62588;SDS011;58504;48.770;9.148;2022-08-04T01:52:52;0.60;;;0.60;;
62588;SDS011;58504;48.770;9.148;2022-08-04T01:55:20;0.70;;;0.70;;
62588;SDS011;58504;48.770;9.148;2022-08-04T01:57:48;0.65;;;0.65;;
62588;SDS011;58504;48.770;9.148;2022-08-04T02:00:16;0.57;;;0.57;;
62588;SDS011;58504;48.770;9.148;2022-08-04T02:02:46;0.73;;;0.73;;
62588;SDS011;58504;48.770;9.148;2022-08-04T02:05:14;0.50;;;0.50;;
62588;SDS011;58504;48.770;9.148;2022-08-04T02:07:46;0.60;;;0.60;;
62588;SDS011;58504;48.770;9.148;2022-08-04T02:10:44;0.77;;;0.77;;
62588;SDS011;58504;48.770;9.148;2022-08-04T02:13:22;0.57;;;0.57;;
62588;SDS011;58504;48.770;9.148;2022-08-04T02:15:56;0.60;;;0.60;;
62588;SDS011;58504;48.770;9.148;2022-08-04T02:18:31;0.77;;;0.77;;
62588;SDS011;58504;48.770;9.148;2022-08-04T02:21:06;0.80;;;0.80;;
62588;SDS011;58504;48.770;9.148;2022-08-04T02:23:34;0.60;;;0.60;;
62588;SDS011;58504;48.770;9.148;2022-08-04T02:26:03;0.63;;;0.63;;
62588;SDS011;58504;48.770;9.148;2022-08-04T02:28:32;0.75;;;0.75;;
62588;SDS011;58504;48.770;9.148;2022-08-04T02:31:07;0.70;;;0.70;;
62588;SDS011;58504;48.770;9.148;2022-08-04T02:33:51;0.70;;;0.70;;
62588;SDS011;58504;48.770;9.148;2022-08-04T02:36:27;0.63;;;0.63;;
62588;SDS011;58504;48.770;9.148;2022-08-04T02:38:59;0.40;;;0.40;;
62588;SDS011;58504;48.770;9.148;2022-08-04T02:41:28;0.52;;;0.52;;
62588;SDS011;58504;48.770;9.148;2022-08-04T02:43:56;0.63;;;0.63;;
62588;SDS011;58504;48.770;9.148;2022-08-04T02:46:24;0.70;;;0.70;;
62588;SDS011;58504;48.770;9.148;2022-08-04T02:48:53;0.50;;;0.50;;
62588;SDS011;58504;48.770;9.148;2022-08-04T02:51:21;0.65;;;0.65;;
62588;SDS011;58504;48.770;9.148;2022-08-04T02:53:52;0.93;;;0.73;;
62588;SDS011;58504;48.770;9.148;2022-08-04T02:56:20;0.70;;;0.70;;
62588;SDS011;58504;48.770;9.148;2022-08-04T02:58:50;0.60;;;0.60;;
62588;SDS011;58504;48.770;9.148;2022-08-04T03:01:20;0.50;;;0.50;;
62588;SDS011;58504;48.770;9.148;2022-08-04T03:03:50;0.50;;;0.50;;
62588;SDS011;58504;48.770;9.148;2022-08-04T03:06:46;0.60;;;0.60;;
62588;SDS011;58504;48.770;9.148;2022-08-04T03:09:46;0.70;;;0.70;;
62588;SDS011;58504;48.770;9.148;2022-08-04T03:15:45;0.77;;;0.77;;
62588;SDS011;58504;48.770;9.148;2022-08-04T03:18:45;0.88;;;0.88;;
62588;SDS011;58504;48.770;9.148;2022-08-04T03:21:50;0.63;;;0.63;;
62588;SDS011;58504;48.770;9.148;2022-08-04T03:28:11;0.70;;;0.70;;
62588;SDS011;58504;48.770;9.148;2022-08-04T03:31:05;0.65;;;0.65;;
62588;SDS011;58504;48.770;9.148;2022-08-04T03:33:50;0.68;;;0.68;;
62588;SDS011;58504;48.770;9.148;2022-08-04T03:39:41;0.50;;;0.50;;
62588;SDS011;58504;48.770;9.148;2022-08-04T03:42:38;0.60;;;0.60;;
62588;SDS011;58504;48.770;9.148;2022-08-04T03:45:33;0.57;;;0.57;;
62588;SDS011;58504;48.770;9.148;2022-08-04T03:48:30;0.70;;;0.70;;
62588;SDS011;58504;48.770;9.148;2022-08-04T03:51:18;0.80;;;0.80;;
62588;SDS011;58504;48.770;9.148;2022-08-04T03:54:22;0.60;;;0.60;;
62588;SDS011;58504;48.770;9.148;2022-08-04T03:57:17;0.75;;;0.75;;
62588;SDS011;58504;48.770;9.148;2022-08-04T04:00:02;0.60;;;0.60;;
62588;SDS011;58504;48.770;9.148;2022-08-04T04:05:36;0.60;;;0.60;;
62588;SDS011;58504;48.770;9.148;2022-08-04T04:08:20;0.60;;;0.60;;
62588;SDS011;58504;48.770;9.148;2022-08-04T04:11:20;0.70;;;0.70;;
62588;SDS011;58504;48.770;9.148;2022-08-04T04:14:03;0.60;;;0.60;;
62588;SDS011;58504;48.770;9.148;2022-08-04T04:19:41;0.60;;;0.60;;
62588;SDS011;58504;48.770;9.148;2022-08-04T04:22:26;0.70;;;0.70;;
62588;SDS011;58504;48.770;9.148;2022-08-04T04:25:02;0.60;;;0.60;;
62588;SDS011;58504;48.770;9.148;2022-08-04T04:27:39;0.65;;;0.65;;
62588;SDS011;58504;48.770;9.148;2022-08-04T04:30:18;0.70;;;0.70;;
62588;SDS011;58504;48.770;9.148;2022-08-04T04:32:56;0.80;;;0.80;;
62588;SDS011;58504;48.770;9.148;2022-08-04T04:35:35;0.60;;;0.60;;
62588;SDS011;58504;48.770;9.148;2022-08-04T04:41:20;0.68;;;0.68;;
62588;SDS011;58504;48.770;9.148;2022-08-04T04:44:11;0.50;;;0.50;;
62588;SDS011;58504;48.770;9.148;2022-08-04T04:46:54;0.60;;;0.60;;
62588;SDS011;58504;48.770;9.148;2022-08-04T04:49:28;0.73;;;0.68;;
62588;SDS011;58504;48.770;9.148;2022-08-04T04:52:02;0.80;;;0.80;;
62588;SDS011;58504;48.770;9.148;2022-08-04T04:54:36;0.60;;;0.60;;
62588;SDS011;58504;48.770;9.148;2022-08-04T04:57:08;0.50;;;0.50;;
62588;SDS011;58504;48.770;9.148;2022-08-04T04:59:41;0.30;;;0.30;;
62588;SDS011;58504;48.770;9.148;2022-08-04T05:02:31;0.68;;;0.68;;
62588;SDS011;58504;48.770;9.148;2022-08-04T05:05:20;0.60;;;0.60;;
62588;SDS011;58504;48.770;9.148;2022-08-04T05:08:09;0.63;;;0.63;;
62588;SDS011;58504;48.770;9.148;2022-08-04T05:14:04;0.77;;;0.77;;
62588;SDS011;58504;48.770;9.148;2022-08-04T05:16:38;0.60;;;0.60;;
62588;SDS011;58504;48.770;9.148;2022-08-04T05:19:13;0.60;;;0.60;;
62588;SDS011;58504;48.770;9.148;2022-08-04T05:21:47;0.45;;;0.45;;
62588;SDS011;58504;48.770;9.148;2022-08-04T05:24:16;0.80;;;0.80;;
62588;SDS011;58504;48.770;9.148;2022-08-04T05:26:46;0.60;;;0.60;;
62588;SDS011;58504;48.770;9.148;2022-08-04T05:29:17;0.77;;;0.77;;
62588;SDS011;58504;48.770;9.148;2022-08-04T05:31:51;0.40;;;0.40;;
62588;SDS011;58504;48.770;9.148;2022-08-04T05:34:21;0.60;;;0.60;;
62588;SDS011;58504;48.770;9.148;2022-08-04T05:36:53;0.50;;;0.50;;
62588;SDS011;58504;48.770;9.148;2022-08-04T05:39:24;0.70;;;0.70;;
62588;SDS011;58504;48.770;9.148;2022-08-04T05:41:53;0.60;;;0.60;;
62588;SDS011;58504;48.770;9.148;2022-08-04T05:44:22;0.70;;;0.70;;
62588;SDS011;58504;48.770;9.148;2022-08-04T05:46:52;1.30;;;0.68;;
62588;SDS011;58504;48.770;9.148;2022-08-04T05:49:23;0.50;;;0.50;;
62588;SDS011;58504;48.770;9.148;2022-08-04T05:51:52;0.40;;;0.40;;
62588;SDS011;58504;48.770;9.148;2022-08-04T05:54:22;0.60;;;0.60;;
62588;SDS011;58504;48.770;9.148;2022-08-04T05:56:50;0.40;;;0.40;;
62588;SDS011;58504;48.770;9.148;2022-08-04T05:59:20;0.57;;;0.57;;
62588;SDS011;58504;48.770;9.148;2022-08-04T06:01:49;0.60;;;0.60;;
62588;SDS011;58504;48.770;9.148;2022-08-04T06:04:18;0.40;;;0.40;;
62588;SDS011;58504;48.770;9.148;2022-08-04T06:06:47;0.70;;;0.70;;
62588;SDS011;58504;48.770;9.148;2022-08-04T06:09:15;0.50;;;0.50;;
62588;SDS011;58504;48.770;9.148;2022-08-04T06:11:41;0.60;;;0.60;;
62588;SDS011;58504;48.770;9.148;2022-08-04T06:14:11;0.40;;;0.40;;
62588;SDS011;58504;48.770;9.148;2022-08-04T06:16:40;0.57;;;0.57;;
62588;SDS011;58504;48.770;9.148;2022-08-04T06:19:10;0.60;;;0.60;;
62588;SDS011;58504;48.770;9.148;2022-08-04T06:21:39;0.50;;;0.50;;
62588;SDS011;58504;48.770;9.148;2022-08-04T06:24:10;0.63;;;0.63;;
62588;SDS011;58504;48.770;9.148;2022-08-04T06:26:40;0.43;;;0.43;;
62588;SDS011;58504;48.770;9.148;2022-08-04T06:29:08;0.68;;;0.68;;
62588;SDS011;58504;48.770;9.148;2022-08-04T06:31:44;0.30;;;0.30;;
62588;SDS011;58504;48.770;9.148;2022-08-04T06:34:22;0.70;;;0.70;;
62588;SDS011;58504;48.770;9.148;2022-08-04T06:36:50;0.65;;;0.65;;
62588;SDS011;58504;48.770;9.148;2022-08-04T06:39:20;0.40;;;0.40;;
62588;SDS011;58504;48.770;9.148;2022-08-04T06:41:49;0.50;;;0.50;;
62588;SDS011;58504;48.770;9.148;2022-08-04T06:44:17;0.68;;;0.68;;
62588;SDS011;58504;48.770;9.148;2022-08-04T06:46:46;0.40;;;0.40;;
62588;SDS011;58504;48.770;9.148;2022-08-04T06:49:13;0.80;;;0.80;;
62588;SDS011;58504;48.770;9.148;2022-08-04T06:51:42;0.75;;;0.70;;
62588;SDS011;58504;48.770;9.148;2022-08-04T06:54:10;0.65;;;0.65;;
62588;SDS011;58504;48.770;9.148;2022-08-04T06:56:38;0.40;;;0.40;;
62588;SDS011;58504;48.770;9.148;2022-08-04T06:59:08;0.60;;;0.60;;
62588;SDS011;58504;48.770;9.148;2022-08-04T07:01:36;0.43;;;0.43;;
62588;SDS011;58504;48.770;9.148;2022-08-04T07:04:04;0.47;;;0.47;;
62588;SDS011;58504;48.770;9.148;2022-08-04T07:06:31;0.73;;;0.73;;
62588;SDS011;58504;48.770;9.148;2022-08-04T07:08:58;0.70;;;0.70;;
62588;SDS011;58504;48.770;9.148;2022-08-04T07:11:27;0.70;;;0.70;;
62588;SDS011;58504;48.770;9.148;2022-08-04T07:13:55;0.32;;;0.32;;
62588;SDS011;58504;48.770;9.148;2022-08-04T07:16:24;0.60;;;0.60;;
62588;SDS011;58504;48.770;9.148;2022-08-04T07:18:51;0.60;;;0.60;;
62588;SDS011;58504;48.770;9.148;2022-08-04T07:21:18;0.40;;;0.40;;
62588;SDS011;58504;48.770;9.148;2022-08-04T07:23:47;0.70;;;0.70;;
62588;SDS011;58504;48.770;9.148;2022-08-04T07:26:14;0.45;;;0.45;;
62588;SDS011;58504;48.770;9.148;2022-08-04T07:28:43;0.60;;;0.60;;
62588;SDS011;58504;48.770;9.148;2022-08-04T07:31:13;0.73;;;0.73;;
62588;SDS011;58504;48.770;9.148;2022-08-04T07:33:41;0.70;;;0.70;;
62588;SDS011;58504;48.770;9.148;2022-08-04T07:36:09;0.80;;;0.80;;
62588;SDS011;58504;48.770;9.148;2022-08-04T07:38:38;0.75;;;0.75;;
62588;SDS011;58504;48.770;9.148;2022-08-04T07:41:05;0.40;;;0.40;;
62588;SDS011;58504;48.770;9.148;2022-08-04T07:43:32;0.77;;;0.77;;
62588;SDS011;58504;48.770;9.148;2022-08-04T07:46:02;0.73;;;0.73;;
62588;SDS011;58504;48.770;9.148;2022-08-04T07:48:30;0.73;;;0.73;;
62588;SDS011;58504;48.770;9.148;2022-08-04T07:50:57;0.60;;;0.60;;
62588;SDS011;58504;48.770;9.148;2022-08-04T07:53:24;0.65;;;0.65;;
62588;SDS011;58504;48.770;9.148;2022-08-04T07:55:52;0.52;;;0.52;;
62588;SDS011;58504;48.770;9.148;2022-08-04T07:58:20;0.80;;;0.80;;
62588;SDS011;58504;48.770;9.148;2022-08-04T08:00:47;0.68;;;0.68;;
62588;SDS011;58504;48.770;9.148;2022-08-04T08:03:14;0.75;;;0.75;;
62588;SDS011;58504;48.770;9.148;2022-08-04T08:05:43;0.68;;;0.68;;
62588;SDS011;58504;48.770;9.148;2022-08-04T08:08:09;0.68;;;0.68;;
62588;SDS011;58504;48.770;9.148;2022-08-04T08:10:36;0.50;;;0.50;;
62588;SDS011;58504;48.770;9.148;2022-08-04T08:13:04;0.70;;;0.70;;
62588;SDS011;58504;48.770;9.148;2022-08-04T08:15:33;0.70;;;0.70;;
62588;SDS011;58504;48.770;9.148;2022-08-04T08:18:00;0.63;;;0.63;;
62588;SDS011;58504;48.770;9.148;2022-08-04T08:20:28;0.70;;;0.70;;
62588;SDS011;58504;48.770;9.148;2022-08-04T08:22:58;0.50;;;0.50;;
62588;SDS011;58504;48.770;9.148;2022-08-04T08:25:27;0.63;;;0.63;;
62588;SDS011;58504;48.770;9.148;2022-08-04T08:27:55;0.80;;;0.80;;
62588;SDS011;58504;48.770;9.148;2022-08-04T08:30:22;0.80;;;0.80;;
62588;SDS011;58504;48.770;9.148;2022-08-04T08:32:49;0.80;;;0.80;;
62588;SDS011;58504;48.770;9.148;2022-08-04T08:35:16;0.60;;;0.60;;
62588;SDS011;58504;48.770;9.148;2022-08-04T08:37:44;0.50;;;0.50;;
62588;SDS011;58504;48.770;9.148;2022-08-04T08:40:23;0.60;;;0.60;;
62588;SDS011;58504;48.770;9.148;2022-08-04T08:46:02;0.60;;;0.60;;
62588;SDS011;58504;48.770;9.148;2022-08-04T08:49:15;0.70;;;0.70;;
62588;SDS011;58504;48.770;9.148;2022-08-04T08:52:11;0.60;;;0.60;;
62588;SDS011;58504;48.770;9.148;2022-08-04T08:54:55;0.63;;;0.63;;
62588;SDS011;58504;48.770;9.148;2022-08-04T08:57:42;0.85;;;0.85;;
62588;SDS011;58504;48.770;9.148;2022-08-04T09:00:15;0.57;;;0.57;;
62588;SDS011;58504;48.770;9.148;2022-08-04T09:02:58;0.80;;;0.80;;
62588;SDS011;58504;48.770;9.148;2022-08-04T09:05:47;0.85;;;0.85;;
62588;SDS011;58504;48.770;9.148;2022-08-04T09:08:27;0.90;;;0.90;;
62588;SDS011;58504;48.770;9.148;2022-08-04T09:11:05;0.65;;;0.65;;
62588;SDS011;58504;48.770;9.148;2022-08-04T09:13:40;1.75;;;0.60;;
62588;SDS011;58504;48.770;9.148;2022-08-04T09:16:15;0.60;;;0.60;;
62588;SDS011;58504;48.770;9.148;2022-08-04T09:18:46;0.60;;;0.60;;
62588;SDS011;58504;48.770;9.148;2022-08-04T09:21:22;0.70;;;0.70;;
62588;SDS011;58504;48.770;9.148;2022-08-04T09:23:58;0.50;;;0.50;;
62588;SDS011;58504;48.770;9.148;2022-08-04T09:26:33;0.50;;;0.50;;
62588;SDS011;58504;48.770;9.148;2022-08-04T09:29:10;0.50;;;0.50;;
62588;SDS011;58504;48.770;9.148;2022-08-04T09:31:43;0.70;;;0.70;;
62588;SDS011;58504;48.770;9.148;2022-08-04T09:34:19;0.65;;;0.65;;
62588;SDS011;58504;48.770;9.148;2022-08-04T09:36:55;0.90;;;0.90;;
62588;SDS011;58504;48.770;9.148;2022-08-04T09:39:36;0.70;;;0.70;;
62588;SDS011;58504;48.770;9.148;2022-08-04T09:42:15;0.70;;;0.70;;
62588;SDS011;58504;48.770;9.148;2022-08-04T09:44:51;0.70;;;0.70;;
62588;SDS011;58504;48.770;9.148;2022-08-04T09:47:29;0.70;;;0.70;;
62588;SDS011;58504;48.770;9.148;2022-08-04T09:50:02;0.80;;;0.80;;
62588;SDS011;58504;48.770;9.148;2022-08-04T09:52:40;0.60;;;0.60;;
62588;SDS011;58504;48.770;9.148;2022-08-04T09:55:17;0.60;;;0.60;;
62588;SDS011;58504;48.770;9.148;2022-08-04T09:57:54;0.52;;;0.52;;
62588;SDS011;58504;48.770;9.148;2022-08-04T10:00:32;0.50;;;0.50;;
62588;SDS011;58504;48.770;9.148;2022-08-04T10:03:01;0.75;;;0.75;;
62588;SDS011;58504;48.770;9.148;2022-08-04T10:05:34;0.80;;;0.80;;
62588;SDS011;58504;48.770;9.148;2022-08-04T10:08:16;1.75;;;0.80;;
62588;SDS011;58504;48.770;9.148;2022-08-04T10:10:55;0.70;;;0.70;;
62588;SDS011;58504;48.770;9.148;2022-08-04T10:19:18;0.70;;;0.70;;
62588;SDS011;58504;48.770;9.148;2022-08-04T10:21:52;0.90;;;0.90;;
62588;SDS011;58504;48.770;9.148;2022-08-04T10:24:29;0.77;;;0.77;;
62588;SDS011;58504;48.770;9.148;2022-08-04T10:27:06;0.60;;;0.60;;
62588;SDS011;58504;48.770;9.148;2022-08-04T10:29:40;0.88;;;0.88;;
62588;SDS011;58504;48.770;9.148;2022-08-04T10:34:42;0.70;;;0.70;;
62588;SDS011;58504;48.770;9.148;2022-08-04T10:37:26;0.70;;;0.70;;
62588;SDS011;58504;48.770;9.148;2022-08-04T10:42:45;0.70;;;0.70;;
62588;SDS011;58504;48.770;9.148;2022-08-04T10:45:21;0.60;;;0.60;;
62588;SDS011;58504;48.770;9.148;2022-08-04T10:47:56;0.70;;;0.70;;
62588;SDS011;58504;48.770;9.148;2022-08-04T10:50:28;0.60;;;0.60;;
62588;SDS011;58504;48.770;9.148;2022-08-04T10:52:57;0.75;;;0.75;;
62588;SDS011;58504;48.770;9.148;2022-08-04T10:55:31;0.75;;;0.60;;
62588;SDS011;58504;48.770;9.148;2022-08-04T10:58:03;0.80;;;0.80;;
62588;SDS011;58504;48.770;9.148;2022-08-04T11:00:32;1.00;;;0.88;;
62588;SDS011;58504;48.770;9.148;2022-08-04T11:03:06;1.08;;;1.08;;
62588;SDS011;58504;48.770;9.148;2022-08-04T11:05:40;0.88;;;0.88;;
62588;SDS011;58504;48.770;9.148;2022-08-04T11:08:13;6.05;;;1.77;;
62588;SDS011;58504;48.770;9.148;2022-08-04T11:10:44;5.82;;;1.60;;
62588;SDS011;58504;48.770;9.148;2022-08-04T11:15:47;5.97;;;2.05;;
62588;SDS011;58504;48.770;9.148;2022-08-04T11:18:22;4.68;;;2.45;;
62588;SDS011;58504;48.770;9.148;2022-08-04T11:20:54;5.53;;;1.90;;
62588;SDS011;58504;48.770;9.148;2022-08-04T11:23:27;10.40;;;2.40;;
62588;SDS011;58504;48.770;9.148;2022-08-04T11:25:59;7.15;;;2.08;;
62588;SDS011;58504;48.770;9.148;2022-08-04T11:28:33;8.23;;;3.00;;
62588;SDS011;58504;48.770;9.148;2022-08-04T11:31:10;9.50;;;2.85;;
62588;SDS011;58504;48.770;9.148;2022-08-04T11:33:43;5.47;;;2.20;;
62588;SDS011;58504;48.770;9.148;2022-08-04T11:36:17;7.10;;;2.10;;
62588;SDS011;58504;48.770;9.148;2022-08-04T11:38:49;4.70;;;2.63;;
62588;SDS011;58504;48.770;9.148;2022-08-04T11:41:25;8.65;;;2.03;;
62588;SDS011;58504;48.770;9.148;2022-08-04T11:44:03;5.53;;;2.25;;
62588;SDS011;58504;48.770;9.148;2022-08-04T11:46:31;6.30;;;2.47;;
62588;SDS011;58504;48.770;9.148;2022-08-04T11:49:06;8.73;;;2.38;;
62588;SDS011;58504;48.770;9.148;2022-08-04T11:51:36;5.05;;;2.78;;
62588;SDS011;58504;48.770;9.148;2022-08-04T11:54:04;8.57;;;2.97;;
62588;SDS011;58504;48.770;9.148;2022-08-04T11:56:32;6.82;;;2.70;;
62588;SDS011;58504;48.770;9.148;2022-08-04T11:58:59;6.68;;;2.40;;
62588;SDS011;58504;48.770;9.148;2022-08-04T12:01:33;5.82;;;2.90;;
62588;SDS011;58504;48.770;9.148;2022-08-04T12:04:12;7.22;;;2.90;;
62588;SDS011;58504;48.770;9.148;2022-08-04T12:06:44;4.18;;;2.65;;
62588;SDS011;58504;48.770;9.148;2022-08-04T12:09:21;4.55;;;1.85;;
62588;SDS011;58504;48.770;9.148;2022-08-04T12:11:59;5.00;;;2.35;;
62588;SDS011;58504;48.770;9.148;2022-08-04T12:14:36;3.75;;;1.80;;
62588;SDS011;58504;48.770;9.148;2022-08-04T12:17:08;2.83;;;2.25;;
62588;SDS011;58504;48.770;9.148;2022-08-04T12:19:40;3.55;;;2.30;;
62588;SDS011;58504;48.770;9.148;2022-08-04T12:22:13;6.22;;;2.78;;
62588;SDS011;58504;48.770;9.148;2022-08-04T12:24:44;4.93;;;2.42;;
62588;SDS011;58504;48.770;9.148;2022-08-04T12:27:14;2.30;;;2.00;;
62588;SDS011;58504;48.770;9.148;2022-08-04T12:29:44;4.95;;;2.63;;
62588;SDS011;58504;48.770;9.148;2022-08-04T12:32:19;4.18;;;1.90;;
62588;SDS011;58504;48.770;9.148;2022-08-04T12:34:55;6.00;;;2.03;;
62588;SDS011;58504;48.770;9.148;2022-08-04T12:37:33;3.50;;;1.90;;
62588;SDS011;58504;48.770;9.148;2022-08-04T12:40:12;5.47;;;1.83;;
62588;SDS011;58504;48.770;9.148;2022-08-04T12:42:44;2.40;;;1.80;;
62588;SDS011;58504;48.770;9.148;2022-08-04T12:45:16;4.30;;;2.10;;
62588;SDS011;58504;48.770;9.148;2022-08-04T12:47:44;3.63;;;2.03;;
62588;SDS011;58504;48.770;9.148;2022-08-04T12:50:14;2.30;;;1.77;;
62588;SDS011;58504;48.770;9.148;2022-08-04T12:52:43;2.55;;;1.95;;
62588;SDS011;58504;48.770;9.148;2022-08-04T12:55:13;4.28;;;1.90;;
62588;SDS011;58504;48.770;9.148;2022-08-04T12:57:42;3.95;;;2.63;;
62588;SDS011;58504;48.770;9.148;2022-08-04T13:00:11;2.22;;;2.03;;
62588;SDS011;58504;48.770;9.148;2022-08-04T13:02:49;3.67;;;2.10;;
62588;SDS011;58504;48.770;9.148;2022-08-04T13:05:19;2.45;;;1.75;;
62588;SDS011;58504;48.770;9.148;2022-08-04T13:07:47;2.95;;;2.22;;
62588;SDS011;58504;48.770;9.148;2022-08-04T13:10:17;2.42;;;1.67;;
62588;SDS011;58504;48.770;9.148;2022-08-04T13:12:50;5.50;;;2.17;;
62588;SDS011;58504;48.770;9.148;2022-08-04T13:15:22;3.03;;;2.03;;
62588;SDS011;58504;48.770;9.148;2022-08-04T13:17:50;4.00;;;2.33;;
62588;SDS011;58504;48.770;9.148;2022-08-04T13:20:24;3.72;;;2.25;;
62588;SDS011;58504;48.770;9.148;2022-08-04T13:22:57;3.00;;;2.20;;
62588;SDS011;58504;48.770;9.148;2022-08-04T13:25:26;3.17;;;1.88;;
62588;SDS011;58504;48.770;9.148;2022-08-04T13:27:55;2.92;;;1.92;;
62588;SDS011;58504;48.770;9.148;2022-08-04T13:30:22;1.80;;;1.58;;
62588;SDS011;58504;48.770;9.148;2022-08-04T13:32:52;2.47;;;1.70;;
62588;SDS011;58504;48.770;9.148;2022-08-04T13:35:23;5.07;;;2.33;;
62588;SDS011;58504;48.770;9.148;2022-08-04T13:37:51;4.10;;;2.00;;
62588;SDS011;58504;48.770;9.148;2022-08-04T13:40:20;3.10;;;2.15;;
62588;SDS011;58504;48.770;9.148;2022-08-04T13:42:49;4.88;;;2.53;;
62588;SDS011;58504;48.770;9.148;2022-08-04T13:45:18;2.65;;;1.73;;
62588;SDS011;58504;48.770;9.148;2022-08-04T13:47:46;4.40;;;1.95;;
62588;SDS011;58504;48.770;9.148;2022-08-04T13:50:16;3.45;;;2.05;;
62588;SDS011;58504;48.770;9.148;2022-08-04T13:52:46;3.80;;;2.30;;
62588;SDS011;58504;48.770;9.148;2022-08-04T13:55:20;2.72;;;1.98;;
62588;SDS011;58504;48.770;9.148;2022-08-04T13:57:49;6.18;;;2.00;;
62588;SDS011;58504;48.770;9.148;2022-08-04T14:00:20;2.60;;;1.80;;
62588;SDS011;58504;48.770;9.148;2022-08-04T14:02:49;6.88;;;2.42;;
62588;SDS011;58504;48.770;9.148;2022-08-04T14:05:24;1.92;;;1.70;;
62588;SDS011;58504;48.770;9.148;2022-08-04T14:07:54;2.28;;;2.00;;
62588;SDS011;58504;48.770;9.148;2022-08-04T14:10:25;3.17;;;2.08;;
62588;SDS011;58504;48.770;9.148;2022-08-04T14:12:52;2.65;;;2.05;;
62588;SDS011;58504;48.770;9.148;2022-08-04T14:15:33;4.25;;;2.45;;
62588;SDS011;58504;48.770;9.148;2022-08-04T14:18:18;2.00;;;1.83;;
62588;SDS011;58504;48.770;9.148;2022-08-04T14:20:59;2.17;;;1.90;;
62588;SDS011;58504;48.770;9.148;2022-08-04T14:23:37;2.35;;;1.80;;
62588;SDS011;58504;48.770;9.148;2022-08-04T14:26:13;2.47;;;2.00;;
62588;SDS011;58504;48.770;9.148;2022-08-04T14:28:40;2.40;;;1.65;;
62588;SDS011;58504;48.770;9.148;2022-08-04T14:31:08;3.65;;;1.50;;
62588;SDS011;58504;48.770;9.148;2022-08-04T14:33:36;2.20;;;1.80;;
62588;SDS011;58504;48.770;9.148;2022-08-04T14:36:04;4.00;;;2.15;;
62588;SDS011;58504;48.770;9.148;2022-08-04T14:38:42;3.47;;;2.08;;
62588;SDS011;58504;48.770;9.148;2022-08-04T14:41:11;2.20;;;1.70;;
62588;SDS011;58504;48.770;9.148;2022-08-04T14:43:42;1.95;;;1.60;;
62588;SDS011;58504;48.770;9.148;2022-08-04T14:48:37;1.88;;;1.58;;
62588;SDS011;58504;48.770;9.148;2022-08-04T14:51:04;2.95;;;1.70;;
62588;SDS011;58504;48.770;9.148;2022-08-04T14:53:38;1.95;;;1.85;;
62588;SDS011;58504;48.770;9.148;2022-08-04T14:56:07;2.80;;;2.15;;
62588;SDS011;58504;48.770;9.148;2022-08-04T14:58:34;2.72;;;1.98;;
62588;SDS011;58504;48.770;9.148;2022-08-04T15:01:02;1.58;;;1.48;;
62588;SDS011;58504;48.770;9.148;2022-08-04T15:03:30;2.33;;;2.00;;
62588;SDS011;58504;48.770;9.148;2022-08-04T15:05:58;1.63;;;1.52;;
62588;SDS011;58504;48.770;9.148;2022-08-04T15:08:27;2.03;;;1.80;;
62588;SDS011;58504;48.770;9.148;2022-08-04T15:10:54;1.55;;;1.45;;
62588;SDS011;58504;48.770;9.148;2022-08-04T15:13:25;2.13;;;1.92;;
62588;SDS011;58504;48.770;9.148;2022-08-04T15:15:52;2.83;;;2.13;;
62588;SDS011;58504;48.770;9.148;2022-08-04T15:18:19;2.90;;;1.90;;
62588;SDS011;58504;48.770;9.148;2022-08-04T15:20:46;1.52;;;1.42;;
62588;SDS011;58504;48.770;9.148;2022-08-04T15:23:13;4.10;;;1.70;;
62588;SDS011;58504;48.770;9.148;2022-08-04T15:25:41;2.53;;;1.95;;
62588;SDS011;58504;48.770;9.148;2022-08-04T15:28:12;1.70;;;1.60;;
62588;SDS011;58504;48.770;9.148;2022-08-04T15:30:44;2.00;;;1.53;;
62588;SDS011;58504;48.770;9.148;2022-08-04T15:33:13;2.03;;;1.88;;
62588;SDS011;58504;48.770;9.148;2022-08-04T15:35:42;1.90;;;1.80;;
62588;SDS011;58504;48.770;9.148;2022-08-04T15:38:14;2.00;;;1.40;;
62588;SDS011;58504;48.770;9.148;2022-08-04T15:40:50;2.00;;;1.70;;
62588;SDS011;58504;48.770;9.148;2022-08-04T15:43:39;3.50;;;2.17;;
62588;SDS011;58504;48.770;9.148;2022-08-04T15:46:16;2.05;;;1.85;;
62588;SDS011;58504;48.770;9.148;2022-08-04T15:49:16;1.40;;;1.30;;
62588;SDS011;58504;48.770;9.148;2022-08-04T15:51:44;1.42;;;1.33;;
62588;SDS011;58504;48.770;9.148;2022-08-04T15:54:20;1.55;;;1.45;;
62588;SDS011;58504;48.770;9.148;2022-08-04T15:56:48;1.73;;;1.63;;
62588;SDS011;58504;48.770;9.148;2022-08-04T15:59:15;1.60;;;1.50;;
62588;SDS011;58504;48.770;9.148;2022-08-04T16:08:00;1.38;;;1.27;;
62588;SDS011;58504;48.770;9.148;2022-08-04T16:10:37;3.00;;;1.77;;
62588;SDS011;58504;48.770;9.148;2022-08-04T16:13:05;1.73;;;1.58;;
62588;SDS011;58504;48.770;9.148;2022-08-04T16:15:37;2.53;;;2.00;;
62588;SDS011;58504;48.770;9.148;2022-08-04T16:18:07;1.80;;;1.55;;